KPMD/PMD METAR and TAF weather

Enter ICAO airport designator
Station Type Date Time Source
KPMD METAR 2020/06/03 15:53 UTC NOAA

KPMD 031553Z 00000KT 10SM CLR 28/04 A3005 RMK AO2 SLP145 T02830039


Station Type Date Time Source
KPMD Decoded METAR 2020/06/03 15:53 UTC NOAA

PALMDALE PROD FLIGHT PLANT, CA, United States (KPMD) 34-38N 118-05W 780M
Jun 03, 2020 - 11:53 AM EDT / 2020.06.03 1553 UTC
Wind: Calm:0
Visibility: 10 mile(s):0
Sky conditions: clear
Temperature: 82.9 F (28.3 C)
Dew Point: 39.0 F (3.9 C)
Relative Humidity: 20%
Pressure (altimeter): 30.05 in. Hg (1017 hPa)
ob: KPMD 031553Z 00000KT 10SM CLR 28/04 A3005 RMK AO2 SLP145 T02830039
cycle: 16

Station Type Date Time Source
KPMD TAF 2020/06/03 12:39 UTC NOAA

TAF KPMD 031137Z 0312/0412 18008KT P6SM BKN200
FM032000 24012KT P6SM SCT120 BKN180
FM032300 24015G25KT P6SM SCT120 BKN180
FM040500 23012KT P6SM SCT180
FM040900 20008KT P6SM SKC

Example: see airport list